createdAt,value
2023-02-04T00:00:27.797Z,10.95
2023-02-04T00:02:55.705Z,13.38
2023-02-04T00:05:23.470Z,8.60
2023-02-04T00:07:51.230Z,13.75
2023-02-04T00:10:19.403Z,10.85
2023-02-04T00:12:47.325Z,9.93
2023-02-04T00:15:15.188Z,14.18
2023-02-04T00:17:43.029Z,11.93
2023-02-04T00:20:11.158Z,9.80
2023-02-04T00:22:38.940Z,8.02
2023-02-04T00:25:07.315Z,8.90
2023-02-04T00:27:35.093Z,10.73
2023-02-04T00:30:03.524Z,10.85
2023-02-04T00:32:31.480Z,4.78
2023-02-04T00:34:59.225Z,7.90
2023-02-04T00:37:27.179Z,10.63
2023-02-04T00:39:55.056Z,11.52
2023-02-04T00:42:22.979Z,12.02
2023-02-04T00:44:50.615Z,9.13
2023-02-04T00:47:18.451Z,8.65
2023-02-04T00:49:46.223Z,7.82
2023-02-04T00:52:14.040Z,8.40
2023-02-04T00:54:41.936Z,8.13
2023-02-04T00:57:09.836Z,8.93
2023-02-04T00:59:37.608Z,11.50
2023-02-04T01:02:05.530Z,8.65
2023-02-04T01:04:33.390Z,7.85
2023-02-04T01:07:01.077Z,7.68
2023-02-04T01:09:28.888Z,9.20
2023-02-04T01:11:56.703Z,10.23
2023-02-04T01:14:24.502Z,11.18
2023-02-04T01:16:52.193Z,10.07
2023-02-04T01:19:21.506Z,16.13
2023-02-04T01:21:49.437Z,10.10
2023-02-04T01:24:17.170Z,11.82
2023-02-04T01:27:03.130Z,11.45
2023-02-04T01:29:31.314Z,11.15
2023-02-04T01:31:59.479Z,13.05
2023-02-04T01:34:27.440Z,7.05
2023-02-04T01:36:55.105Z,3.83
2023-02-04T01:39:22.932Z,12.45
2023-02-04T01:41:50.767Z,4.40
2023-02-04T01:44:18.688Z,13.52
2023-02-04T01:46:46.507Z,9.65
2023-02-04T01:49:14.262Z,7.38
2023-02-04T01:51:42.080Z,6.03
2023-02-04T01:54:12.653Z,11.48
2023-02-04T01:56:40.832Z,18.50
2023-02-04T01:59:15.694Z,12.90
2023-02-04T02:01:53.257Z,12.75
2023-02-04T02:04:31.371Z,6.07
2023-02-04T02:07:04.297Z,8.10
2023-02-04T02:09:32.117Z,6.55
2023-02-04T02:11:59.925Z,13.27
2023-02-04T02:14:27.757Z,16.88
2023-02-04T02:16:55.684Z,11.20
2023-02-04T02:19:27.941Z,14.75
2023-02-04T02:22:17.823Z,13.25
2023-02-04T02:24:45.611Z,18.63
2023-02-04T02:27:13.822Z,11.20
2023-02-04T02:29:41.955Z,19.60
2023-02-04T02:32:11.383Z,6.75
2023-02-04T02:34:39.889Z,23.58
2023-02-04T02:37:09.408Z,6.40
2023-02-04T02:39:38.108Z,13.57
2023-02-04T02:42:05.770Z,16.00
2023-02-04T02:44:33.763Z,18.33
2023-02-04T02:47:01.449Z,22.55
2023-02-04T02:49:30.186Z,16.17
2023-02-04T02:51:58.023Z,16.77
2023-02-04T02:54:31.147Z,11.45
2023-02-04T02:57:02.353Z,12.85
2023-02-04T02:59:30.156Z,14.23
2023-02-04T03:02:00.528Z,8.50
2023-02-04T03:04:31.049Z,14.10
2023-02-04T03:06:58.833Z,16.58
2023-02-04T03:09:26.756Z,21.50
2023-02-04T03:11:54.774Z,22.05
2023-02-04T03:14:22.835Z,21.80
2023-02-04T03:16:50.589Z,28.15
2023-02-04T03:19:18.392Z,27.02
2023-02-04T03:21:46.177Z,27.50
2023-02-04T03:24:13.920Z,22.23
2023-02-04T03:26:41.761Z,30.35
2023-02-04T03:29:12.643Z,15.02
2023-02-04T03:31:40.486Z,29.98
2023-02-04T03:34:08.475Z,23.23
2023-02-04T03:36:36.987Z,28.20
2023-02-04T03:39:05.043Z,17.95
2023-02-04T03:41:32.878Z,15.57
2023-02-04T03:44:00.707Z,14.43
2023-02-04T03:46:29.184Z,13.00
2023-02-04T03:48:57.005Z,13.82
2023-02-04T03:51:25.026Z,12.55
2023-02-04T03:53:52.694Z,14.30
2023-02-04T03:56:20.459Z,13.15
2023-02-04T03:58:48.276Z,11.18
2023-02-04T04:01:16.037Z,15.77
2023-02-04T04:03:45.595Z,17.65
2023-02-04T04:06:13.515Z,12.75
2023-02-04T04:08:41.244Z,15.27
2023-02-04T04:11:09.040Z,23.42
2023-02-04T04:13:36.938Z,18.42
2023-02-04T04:16:05.413Z,14.82
2023-02-04T04:18:33.407Z,17.48
2023-02-04T04:21:01.164Z,18.13
2023-02-04T04:23:29.041Z,19.98
2023-02-04T04:25:56.898Z,17.10
2023-02-04T04:28:24.767Z,18.98
2023-02-04T04:30:52.752Z,12.15
2023-02-04T04:33:20.521Z,21.48
2023-02-04T04:35:48.247Z,16.48
2023-02-04T04:38:16.055Z,22.98
2023-02-04T04:40:43.792Z,23.20
2023-02-04T04:43:11.465Z,24.55
2023-02-04T04:45:39.194Z,20.73
2023-02-04T04:48:06.950Z,23.95
2023-02-04T04:50:34.948Z,26.08
2023-02-04T04:53:02.751Z,23.20
2023-02-04T04:55:31.026Z,21.50
2023-02-04T04:57:58.906Z,27.67
2023-02-04T05:00:26.757Z,27.52
2023-02-04T05:02:54.677Z,26.98
2023-02-04T05:05:22.420Z,25.23
2023-02-04T05:07:50.143Z,25.63
2023-02-04T05:10:18.483Z,27.58
2023-02-04T05:12:46.475Z,17.73
2023-02-04T05:15:14.352Z,23.73
2023-02-04T05:17:42.083Z,26.55
2023-02-04T05:20:10.584Z,30.35
2023-02-04T05:22:38.538Z,28.33
2023-02-04T05:25:06.713Z,27.27
2023-02-04T05:27:34.483Z,22.88
2023-02-04T05:30:02.234Z,21.75
2023-02-04T05:32:30.282Z,23.75
2023-02-04T05:34:58.038Z,23.38
2023-02-04T05:37:26.001Z,15.43
2023-02-04T05:39:53.853Z,22.83
2023-02-04T05:42:21.570Z,21.00
2023-02-04T05:44:49.546Z,13.25
2023-02-04T05:47:17.428Z,19.50
2023-02-04T05:49:45.253Z,20.40
2023-02-04T05:52:13.262Z,18.02
2023-02-04T05:54:41.179Z,23.95
2023-02-04T05:57:08.971Z,16.23
2023-02-04T05:59:36.876Z,21.23
2023-02-04T06:02:04.841Z,20.63
2023-02-04T06:04:32.733Z,19.27
2023-02-04T06:07:00.389Z,17.75
2023-02-04T06:09:28.227Z,13.45
2023-02-04T06:11:56.123Z,22.40
2023-02-04T06:14:24.141Z,22.50
2023-02-04T06:16:52.076Z,25.52
2023-02-04T06:19:19.942Z,8.15
2023-02-04T06:21:47.976Z,27.42
2023-02-04T06:24:15.633Z,22.52
2023-02-04T06:26:45.314Z,28.60
2023-02-04T06:29:13.247Z,22.30
2023-02-04T06:31:41.109Z,29.73
2023-02-04T06:34:09.079Z,22.75
2023-02-04T06:36:37.059Z,26.90
2023-02-04T06:39:04.873Z,22.60
2023-02-04T06:41:34.550Z,20.90
2023-02-04T06:44:02.394Z,24.85
2023-02-04T06:46:30.387Z,25.40
2023-02-04T06:48:58.230Z,26.33
2023-02-04T06:51:26.567Z,31.05
2023-02-04T06:53:54.392Z,26.05
2023-02-04T06:56:22.300Z,32.05
2023-02-04T06:58:49.991Z,29.20
2023-02-04T07:01:17.943Z,32.50
2023-02-04T07:03:45.755Z,31.58
2023-02-04T07:06:13.547Z,34.33
2023-02-04T07:08:41.432Z,28.95
2023-02-04T07:11:09.200Z,32.10
2023-02-04T07:13:36.999Z,31.77
2023-02-04T07:16:05.078Z,29.05
2023-02-04T07:18:32.952Z,31.27
2023-02-04T07:21:00.729Z,29.30
2023-02-04T07:23:29.130Z,34.95
2023-02-04T07:25:57.839Z,34.92
2023-02-04T07:28:26.093Z,36.75
2023-02-04T07:30:57.011Z,31.05
2023-02-04T07:33:25.048Z,33.25
2023-02-04T07:35:52.992Z,35.97
2023-02-04T07:38:20.870Z,37.55
2023-02-04T07:40:48.711Z,29.15
2023-02-04T07:43:16.804Z,30.55
2023-02-04T07:45:44.720Z,26.50
2023-02-04T07:48:12.543Z,32.67
2023-02-04T07:50:40.414Z,26.63
2023-02-04T07:53:08.417Z,26.77
2023-02-04T07:55:36.290Z,26.63
2023-02-04T07:58:04.317Z,31.67
2023-02-04T08:00:32.441Z,28.77
2023-02-04T08:03:00.592Z,10.60
2023-02-04T08:05:28.488Z,15.68
2023-02-04T08:07:56.586Z,28.70
2023-02-04T08:10:24.290Z,31.50
2023-02-04T08:12:52.229Z,27.13
2023-02-04T08:15:20.012Z,29.15
2023-02-04T08:17:47.812Z,27.20
2023-02-04T08:20:17.055Z,34.85
2023-02-04T08:22:45.178Z,33.03
2023-02-04T08:25:13.097Z,35.00
2023-02-04T08:27:40.976Z,30.85
2023-02-04T08:30:09.456Z,34.17
2023-02-04T08:32:37.361Z,36.70
2023-02-04T08:35:06.544Z,28.38
2023-02-04T08:37:34.329Z,32.40
2023-02-04T08:40:03.264Z,40.50
2023-02-04T08:42:31.281Z,33.97
2023-02-04T08:44:59.375Z,30.52
2023-02-04T08:47:27.225Z,34.45
2023-02-04T08:49:55.157Z,31.77
2023-02-04T08:52:23.230Z,28.25
2023-02-04T08:54:51.001Z,25.33
2023-02-04T08:57:18.944Z,26.58
2023-02-04T08:59:46.840Z,27.95
2023-02-04T09:02:14.895Z,25.98
2023-02-04T09:04:42.664Z,30.13
2023-02-04T09:07:11.046Z,29.52
2023-02-04T09:09:38.966Z,26.73
2023-02-04T09:12:06.726Z,26.13
2023-02-04T09:14:34.486Z,27.52
2023-02-04T09:17:02.487Z,27.55
2023-02-04T09:19:30.366Z,28.65
2023-02-04T09:21:58.083Z,22.65
2023-02-04T09:24:26.099Z,21.67
2023-02-04T09:26:54.083Z,17.42
2023-02-04T09:29:21.891Z,15.13
2023-02-04T09:31:49.856Z,13.20
2023-02-04T09:34:17.595Z,13.63
2023-02-04T09:36:45.523Z,13.93
2023-02-04T09:39:13.491Z,11.10
2023-02-04T09:41:41.684Z,10.45
2023-02-04T09:44:18.395Z,10.88
2023-02-04T09:46:49.117Z,9.40
2023-02-04T09:49:17.111Z,12.38
2023-02-04T09:51:45.355Z,10.55
2023-02-04T09:54:17.086Z,11.93
2023-02-04T09:56:44.975Z,11.13
2023-02-04T09:59:20.829Z,11.02
2023-02-04T10:01:55.513Z,12.30
2023-02-04T10:04:23.445Z,12.55
2023-02-04T10:06:51.238Z,9.38
2023-02-04T10:09:18.966Z,12.05
2023-02-04T10:11:47.888Z,8.32
2023-02-04T10:14:23.019Z,10.55
2023-02-04T10:17:09.184Z,10.98
2023-02-04T10:19:36.885Z,10.40
2023-02-04T10:22:08.181Z,12.55
2023-02-04T10:24:35.918Z,12.73
2023-02-04T10:27:11.038Z,14.88
2023-02-04T10:29:38.908Z,14.05
2023-02-04T10:32:06.757Z,13.75
2023-02-04T10:34:38.276Z,11.77
2023-02-04T10:37:26.276Z,10.15
2023-02-04T10:39:54.326Z,13.52
2023-02-04T10:42:29.883Z,10.63
2023-02-04T10:44:58.090Z,13.50
2023-02-04T10:47:29.612Z,7.85
2023-02-04T10:50:06.594Z,13.23
2023-02-04T10:52:39.935Z,12.95
2023-02-04T10:55:09.530Z,11.18
2023-02-04T10:57:39.677Z,13.13
2023-02-04T11:00:15.600Z,12.02
2023-02-04T11:03:04.888Z,9.30
2023-02-04T11:05:33.988Z,7.25
2023-02-04T11:08:02.283Z,10.43
2023-02-04T11:10:34.221Z,3.47
2023-02-04T11:15:44.882Z,9.98
2023-02-04T11:18:21.684Z,9.45
2023-02-04T11:20:50.025Z,8.70
2023-02-04T11:23:27.835Z,8.77
2023-02-04T11:26:08.072Z,9.77
2023-02-04T11:28:48.074Z,9.55
2023-02-04T11:31:28.667Z,10.00
2023-02-04T11:34:10.927Z,10.68
2023-02-04T11:39:44.064Z,6.68
2023-02-04T11:42:18.115Z,6.38
2023-02-04T11:44:59.753Z,3.95
2023-02-04T11:47:28.171Z,10.18
2023-02-04T11:50:00.608Z,10.63
2023-02-04T11:52:28.480Z,12.80
2023-02-04T11:54:58.345Z,12.93
2023-02-04T11:57:26.935Z,11.15
2023-02-04T11:59:55.204Z,12.38
2023-02-04T12:02:24.634Z,11.25
2023-02-04T12:05:10.145Z,11.10
2023-02-04T12:07:38.946Z,10.27
2023-02-04T12:10:18.914Z,10.27
2023-02-04T12:12:52.477Z,12.05
2023-02-04T12:15:24.908Z,13.55
2023-02-04T12:18:03.087Z,12.40
2023-02-04T12:20:30.994Z,14.55
2023-02-04T12:22:59.125Z,13.13
2023-02-04T12:25:30.530Z,14.10
2023-02-04T12:27:58.455Z,12.57
2023-02-04T12:30:26.710Z,11.88
2023-02-04T12:32:54.561Z,13.10
2023-02-04T12:35:22.400Z,11.90
2023-02-04T12:37:50.381Z,14.38
2023-02-04T12:40:19.625Z,12.65
2023-02-04T12:42:47.569Z,12.65
2023-02-04T12:45:16.097Z,11.85
2023-02-04T12:47:43.997Z,11.93
2023-02-04T12:50:13.431Z,14.43
2023-02-04T12:52:41.480Z,12.82
2023-02-04T12:55:09.475Z,14.55
2023-02-04T12:57:37.268Z,13.20
2023-02-04T13:00:05.725Z,12.45
2023-02-04T13:02:33.549Z,12.20
2023-02-04T13:05:02.345Z,12.32
2023-02-04T13:07:30.429Z,12.25
2023-02-04T13:09:58.995Z,12.07
2023-02-04T13:12:27.095Z,11.23
2023-02-04T13:14:54.889Z,12.85
2023-02-04T13:17:22.821Z,11.85
2023-02-04T13:19:50.538Z,11.43
2023-02-04T13:22:18.336Z,12.23
2023-02-04T13:24:46.225Z,13.15
2023-02-04T13:27:15.617Z,14.32
2023-02-04T13:29:43.404Z,14.02
2023-02-04T13:32:11.218Z,12.75
2023-02-04T13:34:39.115Z,14.75
2023-02-04T13:37:06.910Z,14.02
2023-02-04T13:39:34.705Z,13.25
2023-02-04T13:42:04.500Z,9.23
2023-02-04T13:44:33.736Z,13.48
2023-02-04T13:47:01.553Z,9.55
2023-02-04T13:49:29.318Z,13.45
2023-02-04T13:51:57.148Z,7.80
2023-02-04T13:54:25.041Z,14.27
2023-02-04T13:56:52.999Z,13.13
2023-02-04T13:59:21.168Z,11.35
2023-02-04T14:01:49.049Z,13.68
2023-02-04T14:04:17.232Z,11.77
2023-02-04T14:06:45.054Z,13.15
2023-02-04T14:09:13.032Z,14.75
2023-02-04T14:11:41.054Z,12.10
2023-02-04T14:14:09.147Z,14.40
2023-02-04T14:16:37.954Z,10.65
2023-02-04T14:19:06.795Z,14.32
2023-02-04T14:21:34.712Z,12.30
2023-02-04T14:24:02.544Z,12.05
2023-02-04T14:26:30.360Z,13.05
2023-02-04T14:28:58.261Z,14.90
2023-02-04T14:31:26.134Z,11.68
2023-02-04T14:33:54.189Z,12.20
2023-02-04T14:36:22.719Z,9.77
2023-02-04T14:38:51.689Z,11.02
2023-02-04T14:41:22.237Z,9.40
2023-02-04T14:43:50.061Z,12.00
2023-02-04T14:46:18.111Z,12.55
2023-02-04T14:48:45.989Z,8.07
2023-02-04T14:51:14.340Z,7.18
2023-02-04T14:53:46.127Z,8.15
2023-02-04T14:56:16.475Z,8.95
2023-02-04T14:58:44.389Z,11.30
2023-02-04T15:01:12.535Z,10.63
2023-02-04T15:03:40.519Z,8.27
2023-02-04T15:06:08.379Z,11.82
2023-02-04T15:08:36.545Z,9.32
2023-02-04T15:11:04.539Z,11.20
2023-02-04T15:13:32.431Z,12.10
2023-02-04T15:16:00.444Z,11.65
2023-02-04T15:18:28.547Z,10.85
2023-02-04T15:20:56.417Z,11.75
2023-02-04T15:23:24.310Z,11.18
2023-02-04T15:25:52.594Z,20.30
2023-02-04T15:28:20.359Z,12.05
2023-02-04T15:30:48.502Z,12.85
2023-02-04T15:33:17.172Z,12.82
2023-02-04T15:35:44.985Z,12.10
2023-02-04T15:38:12.959Z,12.30
2023-02-04T15:40:40.757Z,12.13
2023-02-04T15:43:08.743Z,12.55
2023-02-04T15:45:39.284Z,11.85
2023-02-04T15:48:07.469Z,13.65
2023-02-04T15:50:35.138Z,13.27
2023-02-04T15:53:03.161Z,13.23
2023-02-04T15:55:30.959Z,14.45
2023-02-04T15:57:58.715Z,13.02
2023-02-04T16:00:26.634Z,11.27
2023-02-04T16:02:54.366Z,13.32
2023-02-04T16:05:22.071Z,13.60
2023-02-04T16:07:49.990Z,16.55
2023-02-04T16:10:18.687Z,24.42
2023-02-04T16:12:47.824Z,36.28
2023-02-04T16:15:16.098Z,43.90
2023-02-04T16:17:44.072Z,47.47
2023-02-04T16:20:12.262Z,48.58
2023-02-04T16:22:39.977Z,49.40
2023-02-04T16:25:08.368Z,41.05
2023-02-04T16:27:36.195Z,42.92
2023-02-04T16:30:04.750Z,47.03
2023-02-04T16:32:34.213Z,49.17
2023-02-04T16:35:04.800Z,48.97
2023-02-04T16:37:33.086Z,80.72
2023-02-04T16:40:00.862Z,78.95
2023-02-04T16:42:29.984Z,46.78
2023-02-04T16:44:58.074Z,55.80
2023-02-04T16:47:26.032Z,61.40
2023-02-04T16:49:55.576Z,56.47
2023-02-04T16:52:23.556Z,63.75
2023-02-04T16:54:51.298Z,64.03
2023-02-04T16:57:19.062Z,59.30
2023-02-04T16:59:46.867Z,71.35
2023-02-04T17:02:14.878Z,77.75
2023-02-04T17:04:42.789Z,78.45
2023-02-04T17:07:10.764Z,83.10
2023-02-04T17:09:38.847Z,83.50
2023-02-04T17:12:06.784Z,75.85
2023-02-04T17:14:34.552Z,76.45
2023-02-04T17:17:02.397Z,79.13
2023-02-04T17:19:30.182Z,71.95
2023-02-04T17:21:57.991Z,51.13
2023-02-04T17:24:26.353Z,48.28
2023-02-04T17:26:54.204Z,60.75
2023-02-04T17:29:25.579Z,64.03
2023-02-04T17:31:53.974Z,33.03
2023-02-04T17:34:21.806Z,57.17
2023-02-04T17:36:49.688Z,57.42
2023-02-04T17:39:17.539Z,63.10
2023-02-04T17:41:45.358Z,65.00
2023-02-04T17:44:17.490Z,60.05
2023-02-04T17:46:45.295Z,61.13
2023-02-04T17:49:13.189Z,58.55
2023-02-04T17:51:40.982Z,61.60
2023-02-04T17:54:10.904Z,52.58
2023-02-04T17:56:38.673Z,52.75
2023-02-04T17:59:10.385Z,52.50
2023-02-04T18:01:38.617Z,48.38
2023-02-04T18:04:12.332Z,46.58
2023-02-04T18:06:40.202Z,36.88
2023-02-04T18:09:17.732Z,33.55
2023-02-04T18:11:45.532Z,35.88
2023-02-04T18:14:26.944Z,27.73
2023-02-04T18:16:57.236Z,23.33
2023-02-04T18:19:35.653Z,27.20
2023-02-04T18:22:15.769Z,27.40
2023-02-04T18:24:45.512Z,25.15
2023-02-04T18:27:23.906Z,26.55
2023-02-04T18:29:55.937Z,28.27
2023-02-04T18:32:44.747Z,24.38
2023-02-04T18:35:21.670Z,16.98
2023-02-04T18:37:50.094Z,12.80
2023-02-04T18:40:26.712Z,13.10
2023-02-04T18:43:22.190Z,15.90
2023-02-04T18:45:50.034Z,16.73
2023-02-04T18:48:20.863Z,15.48
2023-02-04T18:50:49.443Z,15.38
2023-02-04T18:53:26.034Z,16.55
2023-02-04T18:55:55.668Z,13.57
2023-02-04T18:58:36.928Z,14.27
2023-02-04T19:01:10.721Z,14.63
2023-02-04T19:03:46.551Z,12.73
2023-02-04T19:06:27.704Z,13.82
2023-02-04T19:09:10.478Z,15.73
2023-02-04T19:11:46.148Z,14.57
2023-02-04T19:14:19.417Z,14.30
2023-02-04T19:16:47.614Z,11.98
2023-02-04T19:19:43.795Z,10.65
2023-02-04T19:22:16.965Z,11.60
2023-02-04T19:24:45.088Z,10.52
2023-02-04T19:27:29.611Z,9.60
2023-02-04T19:30:00.112Z,9.25
2023-02-04T19:32:33.614Z,7.57
2023-02-04T19:35:10.785Z,8.75
2023-02-04T19:37:40.366Z,7.88
2023-02-04T19:40:26.274Z,9.85
2023-02-04T19:42:55.858Z,7.88
2023-02-04T19:45:28.345Z,9.45
2023-02-04T19:47:56.647Z,7.85
2023-02-04T19:50:33.756Z,10.60
2023-02-04T19:53:03.169Z,8.80
2023-02-04T19:55:54.174Z,9.57
2023-02-04T19:58:29.068Z,9.48
2023-02-04T20:01:00.797Z,8.27
2023-02-04T20:06:27.821Z,5.68
2023-02-04T20:08:57.275Z,6.00
2023-02-04T20:11:30.994Z,7.20
2023-02-04T20:14:10.946Z,6.35
2023-02-04T20:17:05.441Z,8.15
2023-02-04T20:19:35.881Z,8.68
2023-02-04T20:22:18.991Z,9.55
2023-02-04T20:25:04.807Z,7.68
2023-02-04T20:27:40.060Z,9.18
2023-02-04T20:30:11.954Z,8.07
2023-02-04T20:32:44.564Z,9.60
2023-02-04T20:35:21.633Z,8.20
2023-02-04T20:37:54.289Z,10.38
2023-02-04T20:40:48.262Z,11.38
2023-02-04T20:43:21.174Z,10.57
2023-02-04T20:45:59.686Z,9.75
2023-02-04T20:48:27.705Z,11.57
2023-02-04T20:50:56.400Z,12.95
2023-02-04T20:53:59.380Z,12.20
2023-02-04T20:56:32.663Z,12.70
2023-02-04T20:59:12.706Z,12.38
2023-02-04T21:01:50.424Z,10.52
2023-02-04T21:04:37.441Z,11.48
2023-02-04T21:07:17.322Z,9.02
2023-02-04T21:09:48.018Z,13.55
2023-02-04T21:12:15.875Z,11.27
2023-02-04T21:14:43.766Z,12.95
2023-02-04T21:17:11.677Z,12.30
2023-02-04T21:19:39.542Z,13.55
2023-02-04T21:22:07.293Z,14.10
2023-02-04T21:24:35.252Z,14.23
2023-02-04T21:27:03.204Z,11.95
2023-02-04T21:29:31.105Z,11.23
2023-02-04T21:31:58.987Z,11.82
2023-02-04T21:34:26.737Z,3.85
2023-02-04T21:36:54.577Z,13.07
2023-02-04T21:39:22.640Z,11.65
2023-02-04T21:42:10.546Z,6.55
2023-02-04T21:44:38.552Z,8.30
2023-02-04T21:47:06.429Z,10.65
2023-02-04T21:49:34.249Z,9.77
2023-02-04T21:52:02.124Z,6.32
2023-02-04T21:54:29.943Z,7.35
2023-02-04T21:57:02.320Z,9.18
2023-02-04T21:59:32.932Z,10.38
2023-02-04T22:02:00.742Z,8.95
2023-02-04T22:04:28.648Z,9.85
2023-02-04T22:06:56.460Z,10.10
2023-02-04T22:09:24.236Z,8.98
2023-02-04T22:11:51.972Z,8.98
2023-02-04T22:14:38.044Z,9.48
2023-02-04T22:17:05.930Z,9.77
2023-02-04T22:19:33.787Z,10.85
2023-02-04T22:22:01.583Z,6.60
2023-02-04T22:24:29.404Z,12.15
2023-02-04T22:26:57.131Z,12.27
2023-02-04T22:29:29.144Z,9.48
2023-02-04T22:31:56.984Z,9.50
2023-02-04T22:34:25.831Z,8.10
2023-02-04T22:36:53.804Z,8.38
2023-02-04T22:39:21.694Z,7.65
2023-02-04T22:41:49.577Z,9.48
2023-02-04T22:44:17.434Z,10.82
2023-02-04T22:46:47.409Z,10.52
2023-02-04T22:49:15.348Z,11.27
2023-02-04T22:51:43.158Z,9.45
2023-02-04T22:54:11.701Z,8.75
2023-02-04T22:56:39.556Z,8.40
2023-02-04T22:59:07.197Z,9.23
2023-02-04T23:01:35.016Z,6.25
2023-02-04T23:04:02.922Z,8.15
2023-02-04T23:06:30.963Z,8.50
2023-02-04T23:08:58.705Z,12.80
2023-02-04T23:11:26.399Z,14.50
2023-02-04T23:13:54.639Z,10.30
2023-02-04T23:16:22.489Z,8.90
2023-02-04T23:18:50.288Z,10.18
2023-02-04T23:21:18.150Z,9.43
2023-02-04T23:23:45.893Z,11.32
2023-02-04T23:26:13.924Z,15.30
2023-02-04T23:28:42.185Z,8.57
2023-02-04T23:31:10.270Z,5.53
2023-02-04T23:33:38.134Z,8.95
2023-02-04T23:36:06.129Z,7.43
2023-02-04T23:38:33.935Z,6.00
2023-02-04T23:41:02.066Z,7.95
2023-02-04T23:43:30.016Z,7.57
2023-02-04T23:45:57.866Z,5.30
2023-02-04T23:48:25.803Z,4.45
2023-02-04T23:50:57.330Z,4.97
2023-02-04T23:53:25.326Z,5.13
2023-02-04T23:55:53.091Z,8.05
2023-02-04T23:58:21.070Z,7.13
